SCIE/CCP METAR and TAF weather

Enter ICAO airport designator
Station Type Date Time Source
SCIE METAR 2018/12/11 17:00 UTC NOAA

SCIE 111700Z 23008KT 180V280 CAVOK 21/07 Q1022


Station Type Date Time Source
SCIE Decoded METAR 2018/12/11 17:00 UTC NOAA

Concepcion, Chile (SCIE) 36-46S 073-03W
Dec 11, 2018 - 12:00 PM EST / 2018.12.11 1700 UTC
Wind: from the SW (230 degrees) at 9 MPH (8 KT) (direction variable):0
Visibility: greater than 7 mile(s):0
Temperature: 69 F (21 C)
Dew Point: 44 F (7 C)
Relative Humidity: 40%
Pressure (altimeter): 30.18 in. Hg (1022 hPa)
ob: SCIE 111700Z 23008KT 180V280 CAVOK 21/07 Q1022
cycle: 17

Station Type Date Time Source
SCIE TAF 2018/12/11 18:03 UTC NOAA

TAF SCIE 111620Z 1118/1218 24012KT CAVOK TX22/1118Z TN12/1211Z
BECMG 1201/1203 21006KT
TEMPO 1206/1212 16004KT 7000 SCT010
BECMG 1214/1216 21010KT


Example: see airport list